sensor_id;sensor_type;location;lat;lon;timestamp;P1;durP1;ratioP1;P2;durP2;ratioP2
21771;SDS011;11047;47.904;8.110;2023-05-16T00:00:37;5.00;;;4.18;;
21771;SDS011;11047;47.904;8.110;2023-05-16T00:03:04;4.88;;;4.32;;
21771;SDS011;11047;47.904;8.110;2023-05-16T00:05:31;8.85;;;3.88;;
21771;SDS011;11047;47.904;8.110;2023-05-16T00:07:58;6.10;;;3.78;;
21771;SDS011;11047;47.904;8.110;2023-05-16T00:10:25;4.38;;;3.95;;
21771;SDS011;11047;47.904;8.110;2023-05-16T00:12:52;3.83;;;3.42;;
21771;SDS011;11047;47.904;8.110;2023-05-16T00:15:21;5.53;;;4.18;;
21771;SDS011;11047;47.904;8.110;2023-05-16T00:17:49;4.65;;;4.18;;
21771;SDS011;11047;47.904;8.110;2023-05-16T00:20:16;4.57;;;4.05;;
21771;SDS011;11047;47.904;8.110;2023-05-16T00:22:47;5.28;;;4.25;;
21771;SDS011;11047;47.904;8.110;2023-05-16T00:25:14;5.18;;;4.65;;
21771;SDS011;11047;47.904;8.110;2023-05-16T00:27:41;7.57;;;4.20;;
21771;SDS011;11047;47.904;8.110;2023-05-16T00:30:08;5.75;;;4.57;;
21771;SDS011;11047;47.904;8.110;2023-05-16T00:32:37;5.35;;;4.55;;
21771;SDS011;11047;47.904;8.110;2023-05-16T00:35:05;6.25;;;4.60;;
21771;SDS011;11047;47.904;8.110;2023-05-16T00:37:34;6.13;;;4.90;;
21771;SDS011;11047;47.904;8.110;2023-05-16T00:40:02;5.65;;;4.88;;
21771;SDS011;11047;47.904;8.110;2023-05-16T00:42:29;6.47;;;5.32;;
21771;SDS011;11047;47.904;8.110;2023-05-16T00:44:56;5.80;;;5.20;;
21771;SDS011;11047;47.904;8.110;2023-05-16T00:47:23;5.88;;;5.28;;
21771;SDS011;11047;47.904;8.110;2023-05-16T00:49:51;7.50;;;6.00;;
21771;SDS011;11047;47.904;8.110;2023-05-16T00:52:19;13.70;;;5.97;;
21771;SDS011;11047;47.904;8.110;2023-05-16T00:54:46;8.77;;;7.45;;
21771;SDS011;11047;47.904;8.110;2023-05-16T00:57:13;7.07;;;6.38;;
21771;SDS011;11047;47.904;8.110;2023-05-16T00:59:41;6.28;;;5.68;;
21771;SDS011;11047;47.904;8.110;2023-05-16T01:02:10;7.95;;;6.70;;
21771;SDS011;11047;47.904;8.110;2023-05-16T01:04:38;9.10;;;6.72;;
21771;SDS011;11047;47.904;8.110;2023-05-16T01:07:06;8.70;;;7.60;;
21771;SDS011;11047;47.904;8.110;2023-05-16T01:09:33;9.35;;;7.43;;
21771;SDS011;11047;47.904;8.110;2023-05-16T01:12:04;8.75;;;7.88;;
21771;SDS011;11047;47.904;8.110;2023-05-16T01:14:37;9.00;;;7.75;;
21771;SDS011;11047;47.904;8.110;2023-05-16T01:17:16;10.13;;;8.48;;
21771;SDS011;11047;47.904;8.110;2023-05-16T01:20:00;11.15;;;8.25;;
21771;SDS011;11047;47.904;8.110;2023-05-16T01:22:45;9.20;;;8.07;;
21771;SDS011;11047;47.904;8.110;2023-05-16T01:25:21;10.68;;;8.80;;
21771;SDS011;11047;47.904;8.110;2023-05-16T01:27:58;11.07;;;8.45;;
21771;SDS011;11047;47.904;8.110;2023-05-16T01:30:26;13.48;;;9.57;;
21771;SDS011;11047;47.904;8.110;2023-05-16T01:32:57;10.48;;;9.32;;
21771;SDS011;11047;47.904;8.110;2023-05-16T01:35:24;11.13;;;8.48;;
21771;SDS011;11047;47.904;8.110;2023-05-16T01:37:56;9.35;;;8.40;;
21771;SDS011;11047;47.904;8.110;2023-05-16T01:40:28;10.13;;;8.25;;
21771;SDS011;11047;47.904;8.110;2023-05-16T01:43:00;12.93;;;9.48;;
21771;SDS011;11047;47.904;8.110;2023-05-16T01:45:30;9.85;;;8.77;;
21771;SDS011;11047;47.904;8.110;2023-05-16T01:47:59;10.10;;;8.68;;
21771;SDS011;11047;47.904;8.110;2023-05-16T01:50:33;9.63;;;8.53;;
21771;SDS011;11047;47.904;8.110;2023-05-16T01:53:02;12.05;;;9.55;;
21771;SDS011;11047;47.904;8.110;2023-05-16T01:55:37;9.93;;;8.63;;
21771;SDS011;11047;47.904;8.110;2023-05-16T01:58:11;10.63;;;8.35;;
21771;SDS011;11047;47.904;8.110;2023-05-16T02:00:40;10.80;;;9.18;;
21771;SDS011;11047;47.904;8.110;2023-05-16T02:03:07;10.00;;;8.88;;
21771;SDS011;11047;47.904;8.110;2023-05-16T02:05:34;10.98;;;9.63;;
21771;SDS011;11047;47.904;8.110;2023-05-16T02:08:01;11.65;;;9.38;;
21771;SDS011;11047;47.904;8.110;2023-05-16T02:10:29;11.93;;;9.20;;
21771;SDS011;11047;47.904;8.110;2023-05-16T02:12:56;10.68;;;8.80;;
21771;SDS011;11047;47.904;8.110;2023-05-16T02:15:25;10.13;;;8.98;;
21771;SDS011;11047;47.904;8.110;2023-05-16T02:17:52;11.98;;;9.73;;
21771;SDS011;11047;47.904;8.110;2023-05-16T02:20:19;12.63;;;9.38;;
21771;SDS011;11047;47.904;8.110;2023-05-16T02:22:46;12.50;;;9.00;;
21771;SDS011;11047;47.904;8.110;2023-05-16T02:25:14;13.23;;;9.63;;
21771;SDS011;11047;47.904;8.110;2023-05-16T02:27:41;11.68;;;9.30;;
21771;SDS011;11047;47.904;8.110;2023-05-16T02:30:09;13.95;;;9.35;;
21771;SDS011;11047;47.904;8.110;2023-05-16T02:32:38;13.13;;;9.95;;
21771;SDS011;11047;47.904;8.110;2023-05-16T02:35:08;12.05;;;10.52;;
21771;SDS011;11047;47.904;8.110;2023-05-16T02:37:35;12.48;;;10.38;;
21771;SDS011;11047;47.904;8.110;2023-05-16T02:40:03;15.82;;;10.52;;
21771;SDS011;11047;47.904;8.110;2023-05-16T02:42:31;11.00;;;9.40;;
21771;SDS011;11047;47.904;8.110;2023-05-16T02:44:58;11.98;;;9.68;;
21771;SDS011;11047;47.904;8.110;2023-05-16T02:47:25;12.57;;;10.48;;
21771;SDS011;11047;47.904;8.110;2023-05-16T02:49:53;12.25;;;10.25;;
21771;SDS011;11047;47.904;8.110;2023-05-16T02:52:20;15.55;;;11.07;;
21771;SDS011;11047;47.904;8.110;2023-05-16T02:54:47;12.63;;;10.35;;
21771;SDS011;11047;47.904;8.110;2023-05-16T02:57:14;14.55;;;12.07;;
21771;SDS011;11047;47.904;8.110;2023-05-16T02:59:41;14.32;;;11.55;;
21771;SDS011;11047;47.904;8.110;2023-05-16T03:02:08;14.93;;;12.18;;
21771;SDS011;11047;47.904;8.110;2023-05-16T03:04:35;13.55;;;11.07;;
21771;SDS011;11047;47.904;8.110;2023-05-16T03:07:03;17.48;;;12.43;;
21771;SDS011;11047;47.904;8.110;2023-05-16T03:09:30;16.48;;;13.00;;
21771;SDS011;11047;47.904;8.110;2023-05-16T03:11:57;15.20;;;13.50;;
21771;SDS011;11047;47.904;8.110;2023-05-16T03:14:24;15.65;;;13.63;;
21771;SDS011;11047;47.904;8.110;2023-05-16T03:16:51;19.38;;;14.10;;
21771;SDS011;11047;47.904;8.110;2023-05-16T03:19:18;17.50;;;13.85;;
21771;SDS011;11047;47.904;8.110;2023-05-16T03:21:45;17.50;;;15.38;;
21771;SDS011;11047;47.904;8.110;2023-05-16T03:24:13;19.13;;;16.15;;
21771;SDS011;11047;47.904;8.110;2023-05-16T03:26:40;17.48;;;15.57;;
21771;SDS011;11047;47.904;8.110;2023-05-16T03:29:07;18.58;;;15.70;;
21771;SDS011;11047;47.904;8.110;2023-05-16T03:31:34;17.95;;;16.00;;
21771;SDS011;11047;47.904;8.110;2023-05-16T03:34:01;19.15;;;15.90;;
21771;SDS011;11047;47.904;8.110;2023-05-16T03:36:28;21.77;;;16.98;;
21771;SDS011;11047;47.904;8.110;2023-05-16T03:38:55;21.48;;;16.90;;
21771;SDS011;11047;47.904;8.110;2023-05-16T03:41:23;23.25;;;16.67;;
21771;SDS011;11047;47.904;8.110;2023-05-16T03:43:51;23.65;;;17.27;;
21771;SDS011;11047;47.904;8.110;2023-05-16T03:46:18;22.40;;;17.08;;
21771;SDS011;11047;47.904;8.110;2023-05-16T03:48:45;20.30;;;16.80;;
21771;SDS011;11047;47.904;8.110;2023-05-16T03:51:12;23.65;;;18.52;;
21771;SDS011;11047;47.904;8.110;2023-05-16T03:53:39;20.98;;;16.75;;
21771;SDS011;11047;47.904;8.110;2023-05-16T03:56:06;21.17;;;17.15;;
21771;SDS011;11047;47.904;8.110;2023-05-16T03:58:34;24.30;;;16.95;;
21771;SDS011;11047;47.904;8.110;2023-05-16T04:01:01;22.17;;;16.55;;
21771;SDS011;11047;47.904;8.110;2023-05-16T04:03:28;19.90;;;16.50;;
21771;SDS011;11047;47.904;8.110;2023-05-16T04:05:57;21.30;;;16.35;;
21771;SDS011;11047;47.904;8.110;2023-05-16T04:08:24;19.25;;;15.55;;
21771;SDS011;11047;47.904;8.110;2023-05-16T04:10:51;20.58;;;17.20;;
21771;SDS011;11047;47.904;8.110;2023-05-16T04:13:18;22.38;;;17.33;;
21771;SDS011;11047;47.904;8.110;2023-05-16T04:15:46;22.45;;;17.90;;
21771;SDS011;11047;47.904;8.110;2023-05-16T04:18:13;21.73;;;16.88;;
21771;SDS011;11047;47.904;8.110;2023-05-16T04:20:41;21.70;;;16.15;;
21771;SDS011;11047;47.904;8.110;2023-05-16T04:23:08;20.52;;;16.65;;
21771;SDS011;11047;47.904;8.110;2023-05-16T04:25:37;21.70;;;16.65;;
21771;SDS011;11047;47.904;8.110;2023-05-16T04:28:04;28.15;;;17.70;;
21771;SDS011;11047;47.904;8.110;2023-05-16T04:30:31;29.13;;;18.02;;
21771;SDS011;11047;47.904;8.110;2023-05-16T04:33:00;22.83;;;17.48;;
21771;SDS011;11047;47.904;8.110;2023-05-16T04:35:27;24.23;;;17.92;;
21771;SDS011;11047;47.904;8.110;2023-05-16T04:37:54;24.80;;;17.33;;
21771;SDS011;11047;47.904;8.110;2023-05-16T04:40:21;23.08;;;18.58;;
21771;SDS011;11047;47.904;8.110;2023-05-16T04:42:49;21.75;;;17.73;;
21771;SDS011;11047;47.904;8.110;2023-05-16T04:45:16;25.08;;;19.00;;
21771;SDS011;11047;47.904;8.110;2023-05-16T04:47:43;24.88;;;19.33;;
21771;SDS011;11047;47.904;8.110;2023-05-16T04:50:11;23.70;;;19.40;;
21771;SDS011;11047;47.904;8.110;2023-05-16T04:52:39;23.10;;;18.33;;
21771;SDS011;11047;47.904;8.110;2023-05-16T04:55:07;21.83;;;16.55;;
21771;SDS011;11047;47.904;8.110;2023-05-16T04:57:35;22.25;;;17.95;;
21771;SDS011;11047;47.904;8.110;2023-05-16T05:00:01;22.27;;;18.45;;
21771;SDS011;11047;47.904;8.110;2023-05-16T05:02:31;21.08;;;17.65;;
21771;SDS011;11047;47.904;8.110;2023-05-16T05:04:58;24.05;;;17.95;;
21771;SDS011;11047;47.904;8.110;2023-05-16T05:07:27;22.95;;;17.23;;
21771;SDS011;11047;47.904;8.110;2023-05-16T05:09:54;24.35;;;16.83;;
21771;SDS011;11047;47.904;8.110;2023-05-16T05:12:21;23.25;;;18.15;;
21771;SDS011;11047;47.904;8.110;2023-05-16T05:14:48;22.23;;;17.60;;
21771;SDS011;11047;47.904;8.110;2023-05-16T05:17:15;19.73;;;16.60;;
21771;SDS011;11047;47.904;8.110;2023-05-16T05:19:42;20.83;;;16.90;;
21771;SDS011;11047;47.904;8.110;2023-05-16T05:22:09;27.98;;;19.52;;
21771;SDS011;11047;47.904;8.110;2023-05-16T05:24:37;22.05;;;17.80;;
21771;SDS011;11047;47.904;8.110;2023-05-16T05:27:04;25.05;;;18.88;;
21771;SDS011;11047;47.904;8.110;2023-05-16T05:29:31;23.98;;;18.55;;
21771;SDS011;11047;47.904;8.110;2023-05-16T05:31:58;23.30;;;19.13;;
21771;SDS011;11047;47.904;8.110;2023-05-16T05:34:25;24.70;;;19.30;;
21771;SDS011;11047;47.904;8.110;2023-05-16T05:36:52;24.23;;;17.67;;
21771;SDS011;11047;47.904;8.110;2023-05-16T05:39:19;24.05;;;18.17;;
21771;SDS011;11047;47.904;8.110;2023-05-16T05:41:47;69.28;;;19.15;;
21771;SDS011;11047;47.904;8.110;2023-05-16T05:44:15;57.50;;;18.73;;
21771;SDS011;11047;47.904;8.110;2023-05-16T05:46:42;23.02;;;17.88;;
21771;SDS011;11047;47.904;8.110;2023-05-16T05:49:09;33.03;;;18.02;;
21771;SDS011;11047;47.904;8.110;2023-05-16T05:51:36;19.98;;;15.95;;
21771;SDS011;11047;47.904;8.110;2023-05-16T05:54:03;20.83;;;16.98;;
21771;SDS011;11047;47.904;8.110;2023-05-16T05:56:30;20.42;;;15.43;;
21771;SDS011;11047;47.904;8.110;2023-05-16T05:58:58;17.58;;;14.63;;
21771;SDS011;11047;47.904;8.110;2023-05-16T06:01:25;18.85;;;15.07;;
21771;SDS011;11047;47.904;8.110;2023-05-16T06:03:52;19.77;;;15.23;;
21771;SDS011;11047;47.904;8.110;2023-05-16T06:06:19;21.83;;;14.07;;
21771;SDS011;11047;47.904;8.110;2023-05-16T06:08:46;16.38;;;14.55;;
21771;SDS011;11047;47.904;8.110;2023-05-16T06:11:13;18.92;;;14.15;;
21771;SDS011;11047;47.904;8.110;2023-05-16T06:13:40;18.67;;;15.52;;
21771;SDS011;11047;47.904;8.110;2023-05-16T06:16:08;17.85;;;14.90;;
21771;SDS011;11047;47.904;8.110;2023-05-16T06:18:35;16.17;;;13.80;;
21771;SDS011;11047;47.904;8.110;2023-05-16T06:21:02;15.95;;;13.57;;
21771;SDS011;11047;47.904;8.110;2023-05-16T06:23:30;19.17;;;14.75;;
21771;SDS011;11047;47.904;8.110;2023-05-16T06:25:58;15.05;;;12.48;;
21771;SDS011;11047;47.904;8.110;2023-05-16T06:28:25;14.35;;;12.85;;
21771;SDS011;11047;47.904;8.110;2023-05-16T06:30:52;16.02;;;12.45;;
21771;SDS011;11047;47.904;8.110;2023-05-16T06:33:20;16.10;;;13.90;;
21771;SDS011;11047;47.904;8.110;2023-05-16T06:35:47;21.85;;;14.70;;
21771;SDS011;11047;47.904;8.110;2023-05-16T06:38:14;18.17;;;14.82;;
21771;SDS011;11047;47.904;8.110;2023-05-16T06:40:41;17.50;;;15.02;;
21771;SDS011;11047;47.904;8.110;2023-05-16T06:43:08;16.77;;;13.48;;
21771;SDS011;11047;47.904;8.110;2023-05-16T06:45:35;18.88;;;15.48;;
21771;SDS011;11047;47.904;8.110;2023-05-16T06:48:02;17.85;;;14.45;;
21771;SDS011;11047;47.904;8.110;2023-05-16T06:50:31;16.30;;;12.55;;
21771;SDS011;11047;47.904;8.110;2023-05-16T06:52:59;16.08;;;13.25;;
21771;SDS011;11047;47.904;8.110;2023-05-16T06:55:26;16.00;;;13.52;;
21771;SDS011;11047;47.904;8.110;2023-05-16T06:57:53;13.75;;;11.57;;
21771;SDS011;11047;47.904;8.110;2023-05-16T07:00:20;10.50;;;9.13;;
21771;SDS011;11047;47.904;8.110;2023-05-16T07:02:47;11.25;;;9.02;;
21771;SDS011;11047;47.904;8.110;2023-05-16T07:05:14;10.75;;;9.25;;
21771;SDS011;11047;47.904;8.110;2023-05-16T07:07:42;11.98;;;9.13;;
21771;SDS011;11047;47.904;8.110;2023-05-16T07:10:10;10.13;;;8.20;;
21771;SDS011;11047;47.904;8.110;2023-05-16T07:12:39;8.90;;;7.63;;
21771;SDS011;11047;47.904;8.110;2023-05-16T07:15:07;8.57;;;7.50;;
21771;SDS011;11047;47.904;8.110;2023-05-16T07:17:35;10.63;;;7.80;;
21771;SDS011;11047;47.904;8.110;2023-05-16T07:20:02;7.53;;;6.72;;
21771;SDS011;11047;47.904;8.110;2023-05-16T07:22:29;8.40;;;6.93;;
21771;SDS011;11047;47.904;8.110;2023-05-16T07:24:57;13.30;;;8.88;;
21771;SDS011;11047;47.904;8.110;2023-05-16T07:27:25;12.52;;;8.05;;
21771;SDS011;11047;47.904;8.110;2023-05-16T07:29:52;13.23;;;7.95;;
21771;SDS011;11047;47.904;8.110;2023-05-16T07:32:19;9.95;;;7.93;;
21771;SDS011;11047;47.904;8.110;2023-05-16T07:34:46;8.70;;;7.60;;
21771;SDS011;11047;47.904;8.110;2023-05-16T07:37:13;9.80;;;8.45;;
21771;SDS011;11047;47.904;8.110;2023-05-16T07:39:40;10.07;;;7.70;;
21771;SDS011;11047;47.904;8.110;2023-05-16T07:42:09;8.68;;;7.55;;
21771;SDS011;11047;47.904;8.110;2023-05-16T07:44:36;8.77;;;7.85;;
21771;SDS011;11047;47.904;8.110;2023-05-16T07:47:03;7.90;;;6.35;;
21771;SDS011;11047;47.904;8.110;2023-05-16T07:49:30;8.48;;;7.32;;
21771;SDS011;11047;47.904;8.110;2023-05-16T07:51:57;8.40;;;6.93;;
21771;SDS011;11047;47.904;8.110;2023-05-16T07:54:24;12.75;;;7.32;;
21771;SDS011;11047;47.904;8.110;2023-05-16T07:56:51;8.20;;;6.88;;
21771;SDS011;11047;47.904;8.110;2023-05-16T07:59:19;7.63;;;6.65;;
21771;SDS011;11047;47.904;8.110;2023-05-16T08:01:46;7.82;;;6.60;;
21771;SDS011;11047;47.904;8.110;2023-05-16T08:04:13;6.82;;;6.10;;
21771;SDS011;11047;47.904;8.110;2023-05-16T08:06:40;11.23;;;6.85;;
21771;SDS011;11047;47.904;8.110;2023-05-16T08:09:07;9.98;;;6.53;;
21771;SDS011;11047;47.904;8.110;2023-05-16T08:11:34;8.25;;;6.72;;
21771;SDS011;11047;47.904;8.110;2023-05-16T08:14:01;8.70;;;6.38;;
21771;SDS011;11047;47.904;8.110;2023-05-16T08:16:30;8.32;;;6.38;;
21771;SDS011;11047;47.904;8.110;2023-05-16T08:18:57;7.22;;;6.47;;
21771;SDS011;11047;47.904;8.110;2023-05-16T08:21:24;7.20;;;6.32;;
21771;SDS011;11047;47.904;8.110;2023-05-16T08:23:52;6.55;;;5.82;;
21771;SDS011;11047;47.904;8.110;2023-05-16T08:26:19;5.85;;;5.25;;
21771;SDS011;11047;47.904;8.110;2023-05-16T08:28:46;6.05;;;4.90;;
21771;SDS011;11047;47.904;8.110;2023-05-16T08:31:14;5.97;;;5.38;;
21771;SDS011;11047;47.904;8.110;2023-05-16T08:33:42;8.40;;;7.07;;
21771;SDS011;11047;47.904;8.110;2023-05-16T08:36:09;6.95;;;6.18;;
21771;SDS011;11047;47.904;8.110;2023-05-16T08:38:36;6.05;;;5.32;;
21771;SDS011;11047;47.904;8.110;2023-05-16T08:41:03;7.28;;;5.85;;
21771;SDS011;11047;47.904;8.110;2023-05-16T08:43:30;7.50;;;5.55;;
21771;SDS011;11047;47.904;8.110;2023-05-16T08:45:59;6.65;;;5.93;;
21771;SDS011;11047;47.904;8.110;2023-05-16T08:48:26;7.45;;;6.53;;
21771;SDS011;11047;47.904;8.110;2023-05-16T08:50:55;7.70;;;6.22;;
21771;SDS011;11047;47.904;8.110;2023-05-16T08:53:31;8.45;;;7.10;;
21771;SDS011;11047;47.904;8.110;2023-05-16T08:56:05;8.57;;;6.88;;
21771;SDS011;11047;47.904;8.110;2023-05-16T08:58:33;8.23;;;6.82;;
21771;SDS011;11047;47.904;8.110;2023-05-16T09:01:02;8.07;;;5.93;;
21771;SDS011;11047;47.904;8.110;2023-05-16T09:03:32;9.07;;;7.05;;
21771;SDS011;11047;47.904;8.110;2023-05-16T09:06:02;7.18;;;5.72;;
21771;SDS011;11047;47.904;8.110;2023-05-16T09:08:30;7.43;;;6.20;;
21771;SDS011;11047;47.904;8.110;2023-05-16T09:10:57;5.93;;;5.25;;
21771;SDS011;11047;47.904;8.110;2023-05-16T09:13:24;6.72;;;5.55;;
21771;SDS011;11047;47.904;8.110;2023-05-16T09:18:33;7.53;;;5.07;;
21771;SDS011;11047;47.904;8.110;2023-05-16T09:21:01;19.08;;;6.10;;
21771;SDS011;11047;47.904;8.110;2023-05-16T09:23:29;21.05;;;7.93;;
21771;SDS011;11047;47.904;8.110;2023-05-16T09:25:57;11.13;;;5.50;;
21771;SDS011;11047;47.904;8.110;2023-05-16T09:28:24;11.23;;;5.75;;
21771;SDS011;11047;47.904;8.110;2023-05-16T09:30:51;7.90;;;5.55;;
21771;SDS011;11047;47.904;8.110;2023-05-16T09:33:21;7.50;;;5.35;;
21771;SDS011;11047;47.904;8.110;2023-05-16T09:35:53;12.93;;;6.30;;
21771;SDS011;11047;47.904;8.110;2023-05-16T09:38:23;10.63;;;5.87;;
21771;SDS011;11047;47.904;8.110;2023-05-16T09:40:50;6.15;;;5.38;;
21771;SDS011;11047;47.904;8.110;2023-05-16T09:43:18;7.95;;;5.35;;
21771;SDS011;11047;47.904;8.110;2023-05-16T09:45:48;6.45;;;5.18;;
21771;SDS011;11047;47.904;8.110;2023-05-16T09:48:16;5.90;;;5.00;;
21771;SDS011;11047;47.904;8.110;2023-05-16T09:50:46;7.95;;;5.78;;
21771;SDS011;11047;47.904;8.110;2023-05-16T09:53:16;5.82;;;5.25;;
21771;SDS011;11047;47.904;8.110;2023-05-16T09:55:45;5.88;;;5.28;;
21771;SDS011;11047;47.904;8.110;2023-05-16T09:58:15;8.55;;;6.00;;
21771;SDS011;11047;47.904;8.110;2023-05-16T10:00:43;6.50;;;5.70;;
21771;SDS011;11047;47.904;8.110;2023-05-16T10:03:11;5.88;;;5.28;;
21771;SDS011;11047;47.904;8.110;2023-05-16T10:05:38;7.78;;;6.03;;
21771;SDS011;11047;47.904;8.110;2023-05-16T10:08:06;5.70;;;5.13;;
21771;SDS011;11047;47.904;8.110;2023-05-16T10:10:34;6.68;;;5.13;;
21771;SDS011;11047;47.904;8.110;2023-05-16T10:13:04;6.63;;;5.47;;
21771;SDS011;11047;47.904;8.110;2023-05-16T10:15:35;6.60;;;5.03;;
21771;SDS011;11047;47.904;8.110;2023-05-16T10:18:03;6.38;;;5.30;;
21771;SDS011;11047;47.904;8.110;2023-05-16T10:20:36;6.93;;;5.60;;
21771;SDS011;11047;47.904;8.110;2023-05-16T10:23:04;7.25;;;5.63;;
21771;SDS011;11047;47.904;8.110;2023-05-16T10:25:33;6.82;;;6.13;;
21771;SDS011;11047;47.904;8.110;2023-05-16T10:28:07;7.20;;;6.50;;
21771;SDS011;11047;47.904;8.110;2023-05-16T10:30:34;7.90;;;6.18;;
21771;SDS011;11047;47.904;8.110;2023-05-16T10:33:02;9.15;;;7.60;;
21771;SDS011;11047;47.904;8.110;2023-05-16T10:35:30;9.60;;;6.82;;
21771;SDS011;11047;47.904;8.110;2023-05-16T10:37:57;8.38;;;6.95;;
21771;SDS011;11047;47.904;8.110;2023-05-16T10:40:25;8.00;;;6.75;;
21771;SDS011;11047;47.904;8.110;2023-05-16T10:42:54;8.82;;;6.72;;
21771;SDS011;11047;47.904;8.110;2023-05-16T10:45:23;8.30;;;6.63;;
21771;SDS011;11047;47.904;8.110;2023-05-16T10:47:51;8.95;;;7.35;;
21771;SDS011;11047;47.904;8.110;2023-05-16T10:50:30;8.60;;;7.43;;
21771;SDS011;11047;47.904;8.110;2023-05-16T10:53:10;9.63;;;8.38;;
21771;SDS011;11047;47.904;8.110;2023-05-16T10:55:44;10.63;;;8.07;;
21771;SDS011;11047;47.904;8.110;2023-05-16T10:58:17;13.43;;;8.98;;
21771;SDS011;11047;47.904;8.110;2023-05-16T11:00:49;11.48;;;8.25;;
21771;SDS011;11047;47.904;8.110;2023-05-16T11:03:44;9.95;;;8.35;;
21771;SDS011;11047;47.904;8.110;2023-05-16T11:06:30;12.45;;;9.48;;
21771;SDS011;11047;47.904;8.110;2023-05-16T11:09:05;14.50;;;10.10;;
21771;SDS011;11047;47.904;8.110;2023-05-16T11:11:37;12.30;;;9.77;;
21771;SDS011;11047;47.904;8.110;2023-05-16T11:14:05;12.85;;;9.88;;
21771;SDS011;11047;47.904;8.110;2023-05-16T11:16:34;11.63;;;9.50;;
21771;SDS011;11047;47.904;8.110;2023-05-16T11:19:04;10.52;;;8.95;;
21771;SDS011;11047;47.904;8.110;2023-05-16T11:24:30;10.15;;;7.80;;
21771;SDS011;11047;47.904;8.110;2023-05-16T11:26:59;8.13;;;6.72;;
21771;SDS011;11047;47.904;8.110;2023-05-16T11:29:26;10.43;;;7.70;;
21771;SDS011;11047;47.904;8.110;2023-05-16T11:31:56;11.88;;;9.77;;
21771;SDS011;11047;47.904;8.110;2023-05-16T11:34:24;8.63;;;7.22;;
21771;SDS011;11047;47.904;8.110;2023-05-16T11:36:51;8.65;;;7.50;;
21771;SDS011;11047;47.904;8.110;2023-05-16T11:39:18;13.45;;;9.32;;
21771;SDS011;11047;47.904;8.110;2023-05-16T11:41:45;12.30;;;9.90;;
21771;SDS011;11047;47.904;8.110;2023-05-16T11:44:12;12.68;;;9.93;;
21771;SDS011;11047;47.904;8.110;2023-05-16T11:46:39;11.30;;;9.57;;
21771;SDS011;11047;47.904;8.110;2023-05-16T11:49:07;18.08;;;10.23;;
21771;SDS011;11047;47.904;8.110;2023-05-16T11:51:36;15.05;;;10.77;;
21771;SDS011;11047;47.904;8.110;2023-05-16T11:54:03;12.88;;;9.75;;
21771;SDS011;11047;47.904;8.110;2023-05-16T11:56:31;12.70;;;9.27;;
21771;SDS011;11047;47.904;8.110;2023-05-16T11:58:59;11.98;;;8.80;;
21771;SDS011;11047;47.904;8.110;2023-05-16T12:01:30;9.43;;;8.13;;
21771;SDS011;11047;47.904;8.110;2023-05-16T12:03:58;10.50;;;8.35;;
21771;SDS011;11047;47.904;8.110;2023-05-16T12:06:27;9.20;;;8.18;;
21771;SDS011;11047;47.904;8.110;2023-05-16T12:08:55;10.40;;;8.50;;
21771;SDS011;11047;47.904;8.110;2023-05-16T12:11:22;11.50;;;8.27;;
21771;SDS011;11047;47.904;8.110;2023-05-16T12:13:49;9.77;;;7.90;;
21771;SDS011;11047;47.904;8.110;2023-05-16T12:16:17;10.95;;;9.32;;
21771;SDS011;11047;47.904;8.110;2023-05-16T12:18:44;14.82;;;9.82;;
21771;SDS011;11047;47.904;8.110;2023-05-16T12:21:11;11.35;;;9.18;;
21771;SDS011;11047;47.904;8.110;2023-05-16T12:23:42;12.52;;;8.68;;
21771;SDS011;11047;47.904;8.110;2023-05-16T12:26:09;12.05;;;9.05;;
21771;SDS011;11047;47.904;8.110;2023-05-16T12:28:35;11.80;;;9.35;;
21771;SDS011;11047;47.904;8.110;2023-05-16T12:31:03;11.15;;;8.55;;
21771;SDS011;11047;47.904;8.110;2023-05-16T12:33:37;12.27;;;9.00;;
21771;SDS011;11047;47.904;8.110;2023-05-16T12:36:05;11.30;;;8.90;;
21771;SDS011;11047;47.904;8.110;2023-05-16T12:38:39;10.45;;;8.57;;
21771;SDS011;11047;47.904;8.110;2023-05-16T12:41:07;10.32;;;8.15;;
21771;SDS011;11047;47.904;8.110;2023-05-16T12:43:35;11.35;;;8.88;;
21771;SDS011;11047;47.904;8.110;2023-05-16T12:46:02;10.35;;;8.30;;
21771;SDS011;11047;47.904;8.110;2023-05-16T12:48:36;10.70;;;8.95;;
21771;SDS011;11047;47.904;8.110;2023-05-16T12:51:12;11.30;;;8.73;;
21771;SDS011;11047;47.904;8.110;2023-05-16T12:53:40;10.57;;;8.75;;
21771;SDS011;11047;47.904;8.110;2023-05-16T12:56:10;12.88;;;9.45;;
21771;SDS011;11047;47.904;8.110;2023-05-16T12:58:39;10.50;;;8.23;;
21771;SDS011;11047;47.904;8.110;2023-05-16T13:01:07;11.00;;;8.85;;
21771;SDS011;11047;47.904;8.110;2023-05-16T13:03:34;11.82;;;9.95;;
21771;SDS011;11047;47.904;8.110;2023-05-16T13:06:01;10.85;;;8.75;;
21771;SDS011;11047;47.904;8.110;2023-05-16T13:08:30;11.57;;;8.82;;
21771;SDS011;11047;47.904;8.110;2023-05-16T13:10:57;10.80;;;8.80;;
21771;SDS011;11047;47.904;8.110;2023-05-16T13:13:25;10.73;;;8.73;;
21771;SDS011;11047;47.904;8.110;2023-05-16T13:15:52;12.05;;;10.07;;
21771;SDS011;11047;47.904;8.110;2023-05-16T13:18:19;12.43;;;10.25;;
21771;SDS011;11047;47.904;8.110;2023-05-16T13:20:46;11.77;;;9.40;;
21771;SDS011;11047;47.904;8.110;2023-05-16T13:23:13;11.80;;;9.75;;
21771;SDS011;11047;47.904;8.110;2023-05-16T13:25:40;12.75;;;9.32;;
21771;SDS011;11047;47.904;8.110;2023-05-16T13:28:07;14.52;;;9.32;;
21771;SDS011;11047;47.904;8.110;2023-05-16T13:30:36;12.75;;;9.90;;
21771;SDS011;11047;47.904;8.110;2023-05-16T13:33:03;13.05;;;10.38;;
21771;SDS011;11047;47.904;8.110;2023-05-16T13:35:30;13.63;;;9.63;;
21771;SDS011;11047;47.904;8.110;2023-05-16T13:37:57;10.18;;;9.07;;
21771;SDS011;11047;47.904;8.110;2023-05-16T13:40:24;9.88;;;8.85;;
21771;SDS011;11047;47.904;8.110;2023-05-16T13:42:51;10.95;;;9.13;;
21771;SDS011;11047;47.904;8.110;2023-05-16T13:45:18;12.02;;;9.63;;
21771;SDS011;11047;47.904;8.110;2023-05-16T13:47:47;11.60;;;8.77;;
21771;SDS011;11047;47.904;8.110;2023-05-16T13:50:14;9.93;;;8.05;;
21771;SDS011;11047;47.904;8.110;2023-05-16T13:52:41;11.77;;;8.90;;
21771;SDS011;11047;47.904;8.110;2023-05-16T13:55:08;11.23;;;8.52;;
21771;SDS011;11047;47.904;8.110;2023-05-16T13:57:35;10.40;;;8.27;;
21771;SDS011;11047;47.904;8.110;2023-05-16T14:00:02;11.43;;;8.60;;
21771;SDS011;11047;47.904;8.110;2023-05-16T14:05:04;9.63;;;7.68;;
21771;SDS011;11047;47.904;8.110;2023-05-16T14:07:32;9.73;;;8.30;;
21771;SDS011;11047;47.904;8.110;2023-05-16T14:09:59;8.65;;;7.65;;
21771;SDS011;11047;47.904;8.110;2023-05-16T14:12:26;8.70;;;7.75;;
21771;SDS011;11047;47.904;8.110;2023-05-16T14:14:53;11.48;;;8.73;;
21771;SDS011;11047;47.904;8.110;2023-05-16T14:17:19;12.65;;;8.40;;
21771;SDS011;11047;47.904;8.110;2023-05-16T14:19:46;11.32;;;8.20;;
21771;SDS011;11047;47.904;8.110;2023-05-16T14:22:15;9.18;;;8.27;;
21771;SDS011;11047;47.904;8.110;2023-05-16T14:24:42;9.95;;;8.27;;
21771;SDS011;11047;47.904;8.110;2023-05-16T14:27:09;8.63;;;7.57;;
21771;SDS011;11047;47.904;8.110;2023-05-16T14:29:36;9.35;;;8.35;;
21771;SDS011;11047;47.904;8.110;2023-05-16T14:32:03;11.25;;;8.85;;
21771;SDS011;11047;47.904;8.110;2023-05-16T14:34:31;10.10;;;8.85;;
21771;SDS011;11047;47.904;8.110;2023-05-16T14:36:57;9.70;;;8.30;;
21771;SDS011;11047;47.904;8.110;2023-05-16T14:39:26;9.88;;;8.60;;
21771;SDS011;11047;47.904;8.110;2023-05-16T14:41:53;11.02;;;8.73;;
21771;SDS011;11047;47.904;8.110;2023-05-16T14:44:20;9.15;;;8.25;;
21771;SDS011;11047;47.904;8.110;2023-05-16T14:46:48;9.75;;;8.75;;
21771;SDS011;11047;47.904;8.110;2023-05-16T14:49:15;9.43;;;7.35;;